sensor_id;sensor_type;location;lat;lon;timestamp;temperature;humidity
26212;DHT22;13951;49.516;6.094;2023-05-29T00:00:58;17.70;97.30
26212;DHT22;13951;49.516;6.094;2023-05-29T00:03:32;17.70;97.20
26212;DHT22;13951;49.516;6.094;2023-05-29T00:06:07;17.70;97.50
26212;DHT22;13951;49.516;6.094;2023-05-29T00:08:40;17.70;97.40
26212;DHT22;13951;49.516;6.094;2023-05-29T00:11:13;17.60;97.70
26212;DHT22;13951;49.516;6.094;2023-05-29T00:13:46;17.60;97.50
26212;DHT22;13951;49.516;6.094;2023-05-29T00:16:19;17.60;98.10
26212;DHT22;13951;49.516;6.094;2023-05-29T00:18:52;17.60;98.20
26212;DHT22;13951;49.516;6.094;2023-05-29T00:21:26;17.50;98.40
26212;DHT22;13951;49.516;6.094;2023-05-29T00:23:59;17.40;98.40
26212;DHT22;13951;49.516;6.094;2023-05-29T00:26:32;17.30;98.50
26212;DHT22;13951;49.516;6.094;2023-05-29T00:29:06;17.20;98.70
26212;DHT22;13951;49.516;6.094;2023-05-29T00:31:39;17.10;99.00
26212;DHT22;13951;49.516;6.094;2023-05-29T00:34:13;16.90;99.70
26212;DHT22;13951;49.516;6.094;2023-05-29T00:36:46;16.80;99.90
26212;DHT22;13951;49.516;6.094;2023-05-29T00:39:20;16.70;99.90
26212;DHT22;13951;49.516;6.094;2023-05-29T00:41:53;16.60;99.90
26212;DHT22;13951;49.516;6.094;2023-05-29T00:44:27;16.60;99.90
26212;DHT22;13951;49.516;6.094;2023-05-29T00:47:00;16.40;99.90
26212;DHT22;13951;49.516;6.094;2023-05-29T00:49:35;16.40;99.90
26212;DHT22;13951;49.516;6.094;2023-05-29T00:52:09;16.30;99.90
26212;DHT22;13951;49.516;6.094;2023-05-29T00:54:44;16.10;99.90
26212;DHT22;13951;49.516;6.094;2023-05-29T00:57:18;16.00;99.90
26212;DHT22;13951;49.516;6.094;2023-05-29T00:59:52;15.90;99.90
26212;DHT22;13951;49.516;6.094;2023-05-29T01:02:26;15.80;99.90
26212;DHT22;13951;49.516;6.094;2023-05-29T01:05:02;15.70;99.90
26212;DHT22;13951;49.516;6.094;2023-05-29T01:07:35;15.70;99.90
26212;DHT22;13951;49.516;6.094;2023-05-29T01:10:08;15.60;99.90
26212;DHT22;13951;49.516;6.094;2023-05-29T01:12:52;15.60;99.90
26212;DHT22;13951;49.516;6.094;2023-05-29T01:15:37;15.50;99.90
26212;DHT22;13951;49.516;6.094;2023-05-29T01:18:26;15.40;99.90
26212;DHT22;13951;49.516;6.094;2023-05-29T01:21:40;15.40;99.90
26212;DHT22;13951;49.516;6.094;2023-05-29T01:27:09;15.30;99.90
26212;DHT22;13951;49.516;6.094;2023-05-29T01:29:43;15.30;99.90
26212;DHT22;13951;49.516;6.094;2023-05-29T01:32:18;15.30;99.90
26212;DHT22;13951;49.516;6.094;2023-05-29T01:34:52;15.20;99.90
26212;DHT22;13951;49.516;6.094;2023-05-29T01:37:26;15.20;99.90
26212;DHT22;13951;49.516;6.094;2023-05-29T01:40:02;15.20;99.90
26212;DHT22;13951;49.516;6.094;2023-05-29T01:42:37;15.10;99.90
26212;DHT22;13951;49.516;6.094;2023-05-29T01:45:11;15.10;99.90
26212;DHT22;13951;49.516;6.094;2023-05-29T01:47:45;15.10;99.90
26212;DHT22;13951;49.516;6.094;2023-05-29T01:50:20;15.00;99.90
26212;DHT22;13951;49.516;6.094;2023-05-29T01:52:55;15.00;99.90
26212;DHT22;13951;49.516;6.094;2023-05-29T01:55:29;15.00;99.90
26212;DHT22;13951;49.516;6.094;2023-05-29T01:58:02;14.90;99.90
26212;DHT22;13951;49.516;6.094;2023-05-29T02:00:36;14.90;99.90
26212;DHT22;13951;49.516;6.094;2023-05-29T02:03:09;14.90;99.90
26212;DHT22;13951;49.516;6.094;2023-05-29T02:05:46;14.80;99.90
26212;DHT22;13951;49.516;6.094;2023-05-29T02:08:19;14.80;99.90
26212;DHT22;13951;49.516;6.094;2023-05-29T02:10:52;14.80;99.90
26212;DHT22;13951;49.516;6.094;2023-05-29T02:13:27;14.70;99.90
26212;DHT22;13951;49.516;6.094;2023-05-29T02:16:00;14.70;99.90
26212;DHT22;13951;49.516;6.094;2023-05-29T02:18:33;14.60;99.90
26212;DHT22;13951;49.516;6.094;2023-05-29T02:21:07;14.60;99.90
26212;DHT22;13951;49.516;6.094;2023-05-29T02:23:40;14.50;99.90
26212;DHT22;13951;49.516;6.094;2023-05-29T02:26:14;14.50;99.90
26212;DHT22;13951;49.516;6.094;2023-05-29T02:28:49;14.50;99.90
26212;DHT22;13951;49.516;6.094;2023-05-29T02:31:22;14.50;99.90
26212;DHT22;13951;49.516;6.094;2023-05-29T02:33:55;14.40;99.90
26212;DHT22;13951;49.516;6.094;2023-05-29T02:36:28;14.40;99.90
26212;DHT22;13951;49.516;6.094;2023-05-29T02:39:04;14.40;99.90
26212;DHT22;13951;49.516;6.094;2023-05-29T02:41:37;14.40;99.90
26212;DHT22;13951;49.516;6.094;2023-05-29T02:44:10;14.30;99.90
26212;DHT22;13951;49.516;6.094;2023-05-29T02:46:44;14.30;99.90
26212;DHT22;13951;49.516;6.094;2023-05-29T02:49:18;14.20;99.90
26212;DHT22;13951;49.516;6.094;2023-05-29T02:51:52;14.20;99.90
26212;DHT22;13951;49.516;6.094;2023-05-29T02:54:29;14.20;99.90
26212;DHT22;13951;49.516;6.094;2023-05-29T02:57:02;14.20;99.90
26212;DHT22;13951;49.516;6.094;2023-05-29T02:59:36;14.10;99.90
26212;DHT22;13951;49.516;6.094;2023-05-29T03:02:09;14.10;99.90
26212;DHT22;13951;49.516;6.094;2023-05-29T03:04:44;14.10;99.90
26212;DHT22;13951;49.516;6.094;2023-05-29T03:07:18;14.10;99.90
26212;DHT22;13951;49.516;6.094;2023-05-29T03:09:51;14.10;99.90
26212;DHT22;13951;49.516;6.094;2023-05-29T03:12:25;14.00;99.90
26212;DHT22;13951;49.516;6.094;2023-05-29T03:14:59;14.00;99.90
26212;DHT22;13951;49.516;6.094;2023-05-29T03:17:34;14.00;99.90
26212;DHT22;13951;49.516;6.094;2023-05-29T03:20:10;14.00;99.90
26212;DHT22;13951;49.516;6.094;2023-05-29T03:22:44;14.00;99.90
26212;DHT22;13951;49.516;6.094;2023-05-29T03:25:18;14.00;99.90
26212;DHT22;13951;49.516;6.094;2023-05-29T03:27:52;14.00;99.90
26212;DHT22;13951;49.516;6.094;2023-05-29T03:30:26;14.00;99.90
26212;DHT22;13951;49.516;6.094;2023-05-29T03:32:59;14.00;99.90
26212;DHT22;13951;49.516;6.094;2023-05-29T03:36:06;14.00;99.90
26212;DHT22;13951;49.516;6.094;2023-05-29T03:38:40;13.90;99.90
26212;DHT22;13951;49.516;6.094;2023-05-29T03:41:13;13.80;99.90
26212;DHT22;13951;49.516;6.094;2023-05-29T03:43:47;13.80;99.90
26212;DHT22;13951;49.516;6.094;2023-05-29T03:46:21;13.70;99.90
26212;DHT22;13951;49.516;6.094;2023-05-29T03:48:54;13.70;99.90
26212;DHT22;13951;49.516;6.094;2023-05-29T03:51:28;13.80;99.90
26212;DHT22;13951;49.516;6.094;2023-05-29T03:54:02;13.80;99.90
26212;DHT22;13951;49.516;6.094;2023-05-29T03:56:35;13.70;99.90
26212;DHT22;13951;49.516;6.094;2023-05-29T03:59:09;13.70;99.90
26212;DHT22;13951;49.516;6.094;2023-05-29T04:01:42;13.70;99.90
26212;DHT22;13951;49.516;6.094;2023-05-29T04:04:16;13.70;99.90
26212;DHT22;13951;49.516;6.094;2023-05-29T04:06:50;13.60;99.90
26212;DHT22;13951;49.516;6.094;2023-05-29T04:09:23;13.50;99.90
26212;DHT22;13951;49.516;6.094;2023-05-29T04:11:56;13.50;99.90
26212;DHT22;13951;49.516;6.094;2023-05-29T04:14:30;13.50;99.90
26212;DHT22;13951;49.516;6.094;2023-05-29T04:17:03;13.40;99.90
26212;DHT22;13951;49.516;6.094;2023-05-29T04:19:36;13.40;99.90
26212;DHT22;13951;49.516;6.094;2023-05-29T04:22:10;13.50;99.90
26212;DHT22;13951;49.516;6.094;2023-05-29T04:24:43;13.50;99.90
26212;DHT22;13951;49.516;6.094;2023-05-29T04:27:16;13.50;99.90
26212;DHT22;13951;49.516;6.094;2023-05-29T04:29:50;13.40;99.90
26212;DHT22;13951;49.516;6.094;2023-05-29T04:32:23;13.50;99.90
26212;DHT22;13951;49.516;6.094;2023-05-29T04:34:56;13.50;99.90
26212;DHT22;13951;49.516;6.094;2023-05-29T04:37:29;13.60;99.90
26212;DHT22;13951;49.516;6.094;2023-05-29T04:40:08;13.60;99.90
26212;DHT22;13951;49.516;6.094;2023-05-29T04:42:47;13.70;99.90
26212;DHT22;13951;49.516;6.094;2023-05-29T04:45:21;13.80;99.90
26212;DHT22;13951;49.516;6.094;2023-05-29T04:47:56;13.80;99.90
26212;DHT22;13951;49.516;6.094;2023-05-29T04:50:31;13.70;99.90
26212;DHT22;13951;49.516;6.094;2023-05-29T04:53:05;13.70;99.90
26212;DHT22;13951;49.516;6.094;2023-05-29T04:55:38;13.80;99.90
26212;DHT22;13951;49.516;6.094;2023-05-29T04:58:12;13.80;99.90
26212;DHT22;13951;49.516;6.094;2023-05-29T05:00:46;13.90;99.90
26212;DHT22;13951;49.516;6.094;2023-05-29T05:03:20;14.00;99.90
26212;DHT22;13951;49.516;6.094;2023-05-29T05:05:54;14.10;99.90
26212;DHT22;13951;49.516;6.094;2023-05-29T05:08:27;14.30;99.90
26212;DHT22;13951;49.516;6.094;2023-05-29T05:11:00;14.50;99.90
26212;DHT22;13951;49.516;6.094;2023-05-29T05:13:34;14.70;99.90
26212;DHT22;13951;49.516;6.094;2023-05-29T05:16:07;14.90;99.90
26212;DHT22;13951;49.516;6.094;2023-05-29T05:18:43;15.10;99.90
26212;DHT22;13951;49.516;6.094;2023-05-29T05:21:17;15.30;99.90
26212;DHT22;13951;49.516;6.094;2023-05-29T05:23:51;15.50;99.90
26212;DHT22;13951;49.516;6.094;2023-05-29T05:26:31;15.70;99.90
26212;DHT22;13951;49.516;6.094;2023-05-29T05:29:04;15.80;99.90
26212;DHT22;13951;49.516;6.094;2023-05-29T05:31:39;15.90;99.90
26212;DHT22;13951;49.516;6.094;2023-05-29T05:34:13;16.10;99.90
26212;DHT22;13951;49.516;6.094;2023-05-29T05:36:48;16.20;99.90
26212;DHT22;13951;49.516;6.094;2023-05-29T05:39:22;16.30;99.90
26212;DHT22;13951;49.516;6.094;2023-05-29T05:41:57;16.50;99.90
26212;DHT22;13951;49.516;6.094;2023-05-29T05:44:53;16.70;99.90
26212;DHT22;13951;49.516;6.094;2023-05-29T05:47:27;16.80;99.90
26212;DHT22;13951;49.516;6.094;2023-05-29T05:50:03;16.90;99.90
26212;DHT22;13951;49.516;6.094;2023-05-29T05:52:36;17.00;99.90
26212;DHT22;13951;49.516;6.094;2023-05-29T05:55:11;17.20;99.90
26212;DHT22;13951;49.516;6.094;2023-05-29T05:57:45;17.40;99.90
26212;DHT22;13951;49.516;6.094;2023-05-29T06:00:19;17.30;99.90
26212;DHT22;13951;49.516;6.094;2023-05-29T06:02:52;17.30;99.90
26212;DHT22;13951;49.516;6.094;2023-05-29T06:05:37;17.40;99.90
26212;DHT22;13951;49.516;6.094;2023-05-29T06:08:13;17.40;99.90
26212;DHT22;13951;49.516;6.094;2023-05-29T06:10:48;17.50;99.90
26212;DHT22;13951;49.516;6.094;2023-05-29T06:13:22;17.70;99.90
26212;DHT22;13951;49.516;6.094;2023-05-29T06:16:01;17.70;99.90
26212;DHT22;13951;49.516;6.094;2023-05-29T06:18:34;17.60;99.90
26212;DHT22;13951;49.516;6.094;2023-05-29T06:21:08;17.70;99.90
26212;DHT22;13951;49.516;6.094;2023-05-29T06:23:49;17.70;99.90
26212;DHT22;13951;49.516;6.094;2023-05-29T06:26:23;17.80;99.90
26212;DHT22;13951;49.516;6.094;2023-05-29T06:28:59;17.90;99.90
26212;DHT22;13951;49.516;6.094;2023-05-29T06:31:32;18.00;99.90
26212;DHT22;13951;49.516;6.094;2023-05-29T06:34:07;18.00;99.90
26212;DHT22;13951;49.516;6.094;2023-05-29T06:36:40;18.10;99.90
26212;DHT22;13951;49.516;6.094;2023-05-29T06:39:15;18.10;99.90
26212;DHT22;13951;49.516;6.094;2023-05-29T06:41:49;18.00;99.90
26212;DHT22;13951;49.516;6.094;2023-05-29T06:44:23;18.00;99.90
26212;DHT22;13951;49.516;6.094;2023-05-29T06:46:59;18.10;99.90
26212;DHT22;13951;49.516;6.094;2023-05-29T06:49:32;18.20;99.90
26212;DHT22;13951;49.516;6.094;2023-05-29T06:52:05;18.40;99.90
26212;DHT22;13951;49.516;6.094;2023-05-29T06:54:57;18.60;99.90
26212;DHT22;13951;49.516;6.094;2023-05-29T06:57:30;19.00;99.90
26212;DHT22;13951;49.516;6.094;2023-05-29T07:00:05;19.40;99.90
26212;DHT22;13951;49.516;6.094;2023-05-29T07:02:47;19.50;99.90
26212;DHT22;13951;49.516;6.094;2023-05-29T07:05:21;19.70;99.90
26212;DHT22;13951;49.516;6.094;2023-05-29T07:07:54;19.80;99.90
26212;DHT22;13951;49.516;6.094;2023-05-29T07:10:27;19.70;99.90
26212;DHT22;13951;49.516;6.094;2023-05-29T07:13:02;19.70;99.90
26212;DHT22;13951;49.516;6.094;2023-05-29T07:15:36;19.50;99.90
26212;DHT22;13951;49.516;6.094;2023-05-29T07:18:10;19.30;99.90
26212;DHT22;13951;49.516;6.094;2023-05-29T07:20:44;19.30;99.90
26212;DHT22;13951;49.516;6.094;2023-05-29T07:23:20;19.40;99.90
26212;DHT22;13951;49.516;6.094;2023-05-29T07:25:53;19.40;99.90
26212;DHT22;13951;49.516;6.094;2023-05-29T07:28:26;19.60;99.90
26212;DHT22;13951;49.516;6.094;2023-05-29T07:30:59;19.70;99.90
26212;DHT22;13951;49.516;6.094;2023-05-29T07:33:34;20.00;99.90
26212;DHT22;13951;49.516;6.094;2023-05-29T07:36:08;20.10;99.90
26212;DHT22;13951;49.516;6.094;2023-05-29T07:38:42;20.20;99.90
26212;DHT22;13951;49.516;6.094;2023-05-29T07:41:16;20.20;99.90
26212;DHT22;13951;49.516;6.094;2023-05-29T07:43:57;20.30;99.90
26212;DHT22;13951;49.516;6.094;2023-05-29T07:46:31;20.40;99.90
26212;DHT22;13951;49.516;6.094;2023-05-29T07:49:25;20.60;99.90
26212;DHT22;13951;49.516;6.094;2023-05-29T07:51:58;20.70;99.90
26212;DHT22;13951;49.516;6.094;2023-05-29T07:54:32;20.70;99.90
26212;DHT22;13951;49.516;6.094;2023-05-29T07:57:08;20.60;99.90
26212;DHT22;13951;49.516;6.094;2023-05-29T07:59:44;20.70;99.90
26212;DHT22;13951;49.516;6.094;2023-05-29T08:02:17;20.60;99.90
26212;DHT22;13951;49.516;6.094;2023-05-29T08:05:10;20.60;99.90
26212;DHT22;13951;49.516;6.094;2023-05-29T08:07:44;20.80;99.90
26212;DHT22;13951;49.516;6.094;2023-05-29T08:10:17;20.60;99.90
26212;DHT22;13951;49.516;6.094;2023-05-29T08:12:51;20.50;99.90
26212;DHT22;13951;49.516;6.094;2023-05-29T08:15:25;20.60;99.90
26212;DHT22;13951;49.516;6.094;2023-05-29T08:17:59;20.70;99.90
26212;DHT22;13951;49.516;6.094;2023-05-29T08:20:33;20.80;99.90
26212;DHT22;13951;49.516;6.094;2023-05-29T08:23:08;20.90;99.90
26212;DHT22;13951;49.516;6.094;2023-05-29T08:25:41;20.90;99.90
26212;DHT22;13951;49.516;6.094;2023-05-29T08:28:15;20.90;99.90
26212;DHT22;13951;49.516;6.094;2023-05-29T08:30:48;20.90;99.50
26212;DHT22;13951;49.516;6.094;2023-05-29T08:33:21;20.90;99.10
26212;DHT22;13951;49.516;6.094;2023-05-29T08:35:54;21.00;99.60
26212;DHT22;13951;49.516;6.094;2023-05-29T08:38:28;21.10;99.40
26212;DHT22;13951;49.516;6.094;2023-05-29T08:41:02;21.20;99.40
26212;DHT22;13951;49.516;6.094;2023-05-29T08:43:36;21.20;99.10
26212;DHT22;13951;49.516;6.094;2023-05-29T08:46:10;21.30;99.20
26212;DHT22;13951;49.516;6.094;2023-05-29T08:48:48;21.50;99.30
26212;DHT22;13951;49.516;6.094;2023-05-29T08:51:23;21.70;98.30
26212;DHT22;13951;49.516;6.094;2023-05-29T08:54:02;21.80;97.50
26212;DHT22;13951;49.516;6.094;2023-05-29T08:56:36;21.80;97.10
26212;DHT22;13951;49.516;6.094;2023-05-29T08:59:09;21.80;97.20
26212;DHT22;13951;49.516;6.094;2023-05-29T09:01:43;21.70;97.50
26212;DHT22;13951;49.516;6.094;2023-05-29T09:04:17;21.80;97.30
26212;DHT22;13951;49.516;6.094;2023-05-29T09:06:51;21.90;97.10
26212;DHT22;13951;49.516;6.094;2023-05-29T09:09:26;21.80;96.40
26212;DHT22;13951;49.516;6.094;2023-05-29T09:12:02;21.90;96.90
26212;DHT22;13951;49.516;6.094;2023-05-29T09:14:38;21.90;96.50
26212;DHT22;13951;49.516;6.094;2023-05-29T09:17:12;21.90;96.50
26212;DHT22;13951;49.516;6.094;2023-05-29T09:19:48;21.80;96.70
26212;DHT22;13951;49.516;6.094;2023-05-29T09:22:21;21.90;96.60
26212;DHT22;13951;49.516;6.094;2023-05-29T09:24:54;22.00;96.40
26212;DHT22;13951;49.516;6.094;2023-05-29T09:27:27;22.20;95.90
26212;DHT22;13951;49.516;6.094;2023-05-29T09:30:00;22.30;95.10
26212;DHT22;13951;49.516;6.094;2023-05-29T09:32:34;22.40;95.10
26212;DHT22;13951;49.516;6.094;2023-05-29T09:35:07;22.70;95.10
26212;DHT22;13951;49.516;6.094;2023-05-29T09:37:42;22.90;94.20
26212;DHT22;13951;49.516;6.094;2023-05-29T09:40:15;23.00;94.00
26212;DHT22;13951;49.516;6.094;2023-05-29T09:42:48;23.10;94.30
26212;DHT22;13951;49.516;6.094;2023-05-29T09:45:21;23.20;94.00
26212;DHT22;13951;49.516;6.094;2023-05-29T09:47:55;23.20;93.80
26212;DHT22;13951;49.516;6.094;2023-05-29T09:50:28;23.40;93.70
26212;DHT22;13951;49.516;6.094;2023-05-29T09:53:03;23.40;92.40
26212;DHT22;13951;49.516;6.094;2023-05-29T09:55:36;23.40;92.10
26212;DHT22;13951;49.516;6.094;2023-05-29T09:58:10;23.60;92.30
26212;DHT22;13951;49.516;6.094;2023-05-29T10:00:45;23.70;91.60
26212;DHT22;13951;49.516;6.094;2023-05-29T10:03:20;23.60;90.40
26212;DHT22;13951;49.516;6.094;2023-05-29T10:05:58;23.50;91.70
26212;DHT22;13951;49.516;6.094;2023-05-29T10:08:35;23.70;91.60
26212;DHT22;13951;49.516;6.094;2023-05-29T10:11:11;23.80;90.70
26212;DHT22;13951;49.516;6.094;2023-05-29T10:13:48;23.70;90.70
26212;DHT22;13951;49.516;6.094;2023-05-29T10:16:23;23.70;91.10
26212;DHT22;13951;49.516;6.094;2023-05-29T10:18:59;23.70;90.40
26212;DHT22;13951;49.516;6.094;2023-05-29T10:21:37;23.80;90.80
26212;DHT22;13951;49.516;6.094;2023-05-29T10:24:11;23.80;91.20
26212;DHT22;13951;49.516;6.094;2023-05-29T10:26:48;24.00;91.20
26212;DHT22;13951;49.516;6.094;2023-05-29T10:29:34;24.20;91.20
26212;DHT22;13951;49.516;6.094;2023-05-29T10:32:29;24.40;90.70
26212;DHT22;13951;49.516;6.094;2023-05-29T10:35:14;24.60;90.20
26212;DHT22;13951;49.516;6.094;2023-05-29T10:37:58;24.70;88.20
26212;DHT22;13951;49.516;6.094;2023-05-29T10:40:34;24.70;88.50
26212;DHT22;13951;49.516;6.094;2023-05-29T10:43:07;24.70;90.10
26212;DHT22;13951;49.516;6.094;2023-05-29T10:50:51;24.70;88.00
26212;DHT22;13951;49.516;6.094;2023-05-29T10:53:26;24.60;88.40
26212;DHT22;13951;49.516;6.094;2023-05-29T10:56:00;24.80;89.40
26212;DHT22;13951;49.516;6.094;2023-05-29T10:58:33;24.90;87.40
26212;DHT22;13951;49.516;6.094;2023-05-29T11:01:08;24.90;87.20
26212;DHT22;13951;49.516;6.094;2023-05-29T11:03:41;25.10;86.90
26212;DHT22;13951;49.516;6.094;2023-05-29T11:06:21;25.10;83.70
26212;DHT22;13951;49.516;6.094;2023-05-29T11:08:57;25.10;84.40
26212;DHT22;13951;49.516;6.094;2023-05-29T11:11:30;25.30;85.10
26212;DHT22;13951;49.516;6.094;2023-05-29T11:14:09;25.50;84.90
26212;DHT22;13951;49.516;6.094;2023-05-29T11:16:42;25.70;84.70
26212;DHT22;13951;49.516;6.094;2023-05-29T11:19:16;25.70;82.00
26212;DHT22;13951;49.516;6.094;2023-05-29T11:21:59;25.70;80.60
26212;DHT22;13951;49.516;6.094;2023-05-29T11:24:38;25.50;81.70
26212;DHT22;13951;49.516;6.094;2023-05-29T11:27:13;25.50;79.40
26212;DHT22;13951;49.516;6.094;2023-05-29T11:29:48;25.60;78.20
26212;DHT22;13951;49.516;6.094;2023-05-29T11:32:21;25.40;79.30
26212;DHT22;13951;49.516;6.094;2023-05-29T11:34:59;25.40;77.40
26212;DHT22;13951;49.516;6.094;2023-05-29T11:37:37;25.60;76.80
26212;DHT22;13951;49.516;6.094;2023-05-29T11:40:11;25.80;74.10
26212;DHT22;13951;49.516;6.094;2023-05-29T11:42:46;25.80;72.10
26212;DHT22;13951;49.516;6.094;2023-05-29T11:45:22;25.90;74.00
26212;DHT22;13951;49.516;6.094;2023-05-29T11:47:58;25.90;71.80
26212;DHT22;13951;49.516;6.094;2023-05-29T11:50:32;25.70;70.20
26212;DHT22;13951;49.516;6.094;2023-05-29T11:53:06;25.70;69.40
26212;DHT22;13951;49.516;6.094;2023-05-29T11:55:40;25.70;68.70
26212;DHT22;13951;49.516;6.094;2023-05-29T11:58:13;25.60;68.80
26212;DHT22;13951;49.516;6.094;2023-05-29T12:00:47;25.50;70.40
26212;DHT22;13951;49.516;6.094;2023-05-29T12:03:23;25.50;71.70
26212;DHT22;13951;49.516;6.094;2023-05-29T12:05:56;25.60;68.90
26212;DHT22;13951;49.516;6.094;2023-05-29T12:08:30;25.60;66.90
26212;DHT22;13951;49.516;6.094;2023-05-29T12:11:06;25.60;68.00
26212;DHT22;13951;49.516;6.094;2023-05-29T12:13:39;25.70;69.50
26212;DHT22;13951;49.516;6.094;2023-05-29T12:16:13;25.80;70.10
26212;DHT22;13951;49.516;6.094;2023-05-29T12:18:46;25.90;71.60
26212;DHT22;13951;49.516;6.094;2023-05-29T12:21:21;25.90;72.50
26212;DHT22;13951;49.516;6.094;2023-05-29T12:23:54;25.90;72.30
26212;DHT22;13951;49.516;6.094;2023-05-29T12:26:46;25.90;74.20
26212;DHT22;13951;49.516;6.094;2023-05-29T12:29:33;25.70;72.10
26212;DHT22;13951;49.516;6.094;2023-05-29T12:32:09;25.50;72.10
26212;DHT22;13951;49.516;6.094;2023-05-29T12:34:43;25.30;73.40
26212;DHT22;13951;49.516;6.094;2023-05-29T12:37:22;25.40;73.70
26212;DHT22;13951;49.516;6.094;2023-05-29T12:40:14;25.40;72.50
26212;DHT22;13951;49.516;6.094;2023-05-29T12:43:17;25.10;73.20
26212;DHT22;13951;49.516;6.094;2023-05-29T12:45:56;25.10;74.00
26212;DHT22;13951;49.516;6.094;2023-05-29T12:48:30;24.90;74.60
26212;DHT22;13951;49.516;6.094;2023-05-29T12:51:07;24.90;75.10
26212;DHT22;13951;49.516;6.094;2023-05-29T12:53:40;25.00;76.90
26212;DHT22;13951;49.516;6.094;2023-05-29T12:56:13;25.00;76.90
26212;DHT22;13951;49.516;6.094;2023-05-29T12:58:47;25.00;77.60
26212;DHT22;13951;49.516;6.094;2023-05-29T13:01:20;25.00;76.00
26212;DHT22;13951;49.516;6.094;2023-05-29T13:03:55;24.90;75.90
26212;DHT22;13951;49.516;6.094;2023-05-29T13:06:28;24.90;76.90
26212;DHT22;13951;49.516;6.094;2023-05-29T13:09:01;24.90;76.80
26212;DHT22;13951;49.516;6.094;2023-05-29T13:11:34;24.90;77.80
26212;DHT22;13951;49.516;6.094;2023-05-29T13:14:10;25.00;77.80
26212;DHT22;13951;49.516;6.094;2023-05-29T13:16:43;25.00;77.80
26212;DHT22;13951;49.516;6.094;2023-05-29T13:19:16;25.00;77.50
26212;DHT22;13951;49.516;6.094;2023-05-29T13:21:49;24.80;76.30
26212;DHT22;13951;49.516;6.094;2023-05-29T13:24:22;24.70;76.70
26212;DHT22;13951;49.516;6.094;2023-05-29T13:26:56;24.70;78.30
26212;DHT22;13951;49.516;6.094;2023-05-29T13:29:29;24.80;79.30
26212;DHT22;13951;49.516;6.094;2023-05-29T13:32:02;24.80;78.20
26212;DHT22;13951;49.516;6.094;2023-05-29T13:34:35;24.80;78.90
26212;DHT22;13951;49.516;6.094;2023-05-29T13:37:09;24.80;81.20
26212;DHT22;13951;49.516;6.094;2023-05-29T13:39:42;24.80;78.70
26212;DHT22;13951;49.516;6.094;2023-05-29T13:42:15;24.70;79.80
26212;DHT22;13951;49.516;6.094;2023-05-29T13:44:49;24.70;79.80
26212;DHT22;13951;49.516;6.094;2023-05-29T13:47:22;24.70;77.90
26212;DHT22;13951;49.516;6.094;2023-05-29T13:49:55;24.70;78.60
26212;DHT22;13951;49.516;6.094;2023-05-29T13:52:28;24.70;78.80
26212;DHT22;13951;49.516;6.094;2023-05-29T13:55:01;24.60;80.80
26212;DHT22;13951;49.516;6.094;2023-05-29T13:57:41;24.60;81.60
26212;DHT22;13951;49.516;6.094;2023-05-29T14:00:16;24.60;81.20
26212;DHT22;13951;49.516;6.094;2023-05-29T14:02:50;24.50;81.40
26212;DHT22;13951;49.516;6.094;2023-05-29T14:05:23;24.50;80.50
26212;DHT22;13951;49.516;6.094;2023-05-29T14:07:56;24.50;81.80
26212;DHT22;13951;49.516;6.094;2023-05-29T14:10:29;24.60;79.40
26212;DHT22;13951;49.516;6.094;2023-05-29T14:13:02;24.60;79.50
26212;DHT22;13951;49.516;6.094;2023-05-29T14:15:37;24.60;80.20
26212;DHT22;13951;49.516;6.094;2023-05-29T14:18:24;24.50;81.00
26212;DHT22;13951;49.516;6.094;2023-05-29T14:20:57;24.50;82.20
26212;DHT22;13951;49.516;6.094;2023-05-29T14:23:30;24.50;83.50
26212;DHT22;13951;49.516;6.094;2023-05-29T14:26:04;24.50;82.50
26212;DHT22;13951;49.516;6.094;2023-05-29T14:28:37;24.50;83.50
26212;DHT22;13951;49.516;6.094;2023-05-29T14:31:11;24.40;83.40
26212;DHT22;13951;49.516;6.094;2023-05-29T14:33:44;24.40;82.00
26212;DHT22;13951;49.516;6.094;2023-05-29T14:36:18;24.30;80.80
26212;DHT22;13951;49.516;6.094;2023-05-29T14:38:51;24.30;80.70
26212;DHT22;13951;49.516;6.094;2023-05-29T14:41:24;24.30;80.50
26212;DHT22;13951;49.516;6.094;2023-05-29T14:43:59;24.40;81.80
26212;DHT22;13951;49.516;6.094;2023-05-29T14:46:32;24.40;82.10
26212;DHT22;13951;49.516;6.094;2023-05-29T14:49:06;24.30;82.20
26212;DHT22;13951;49.516;6.094;2023-05-29T14:51:39;24.30;81.70
26212;DHT22;13951;49.516;6.094;2023-05-29T14:54:13;24.40;82.90
26212;DHT22;13951;49.516;6.094;2023-05-29T14:56:48;24.30;82.00
26212;DHT22;13951;49.516;6.094;2023-05-29T14:59:21;24.30;82.70
26212;DHT22;13951;49.516;6.094;2023-05-29T15:01:54;24.30;83.60
26212;DHT22;13951;49.516;6.094;2023-05-29T15:04:29;24.40;82.80
26212;DHT22;13951;49.516;6.094;2023-05-29T15:07:03;24.40;83.60
26212;DHT22;13951;49.516;6.094;2023-05-29T15:09:38;24.40;83.30
26212;DHT22;13951;49.516;6.094;2023-05-29T15:12:11;24.40;82.50
26212;DHT22;13951;49.516;6.094;2023-05-29T15:14:45;24.30;82.90
26212;DHT22;13951;49.516;6.094;2023-05-29T15:17:18;24.20;82.10
26212;DHT22;13951;49.516;6.094;2023-05-29T15:19:52;24.20;82.40
26212;DHT22;13951;49.516;6.094;2023-05-29T15:22:25;24.10;81.70
26212;DHT22;13951;49.516;6.094;2023-05-29T15:24:58;24.10;82.50
26212;DHT22;13951;49.516;6.094;2023-05-29T15:27:32;24.10;82.40
26212;DHT22;13951;49.516;6.094;2023-05-29T15:30:14;24.10;83.00
26212;DHT22;13951;49.516;6.094;2023-05-29T15:32:48;24.20;84.90
26212;DHT22;13951;49.516;6.094;2023-05-29T15:35:21;24.20;84.60
26212;DHT22;13951;49.516;6.094;2023-05-29T15:37:54;24.20;83.70
26212;DHT22;13951;49.516;6.094;2023-05-29T15:40:27;24.10;84.70
26212;DHT22;13951;49.516;6.094;2023-05-29T15:43:00;24.10;84.20
26212;DHT22;13951;49.516;6.094;2023-05-29T15:45:35;24.10;84.40
26212;DHT22;13951;49.516;6.094;2023-05-29T15:48:08;24.10;84.30
26212;DHT22;13951;49.516;6.094;2023-05-29T15:50:41;24.10;84.10
26212;DHT22;13951;49.516;6.094;2023-05-29T15:53:14;24.10;84.50
26212;DHT22;13951;49.516;6.094;2023-05-29T15:55:47;24.00;83.10
26212;DHT22;13951;49.516;6.094;2023-05-29T15:58:21;24.00;84.40
26212;DHT22;13951;49.516;6.094;2023-05-29T16:00:54;24.00;84.40
26212;DHT22;13951;49.516;6.094;2023-05-29T16:03:30;23.90;84.20
26212;DHT22;13951;49.516;6.094;2023-05-29T16:06:04;23.90;83.80
26212;DHT22;13951;49.516;6.094;2023-05-29T16:08:37;23.90;84.80
26212;DHT22;13951;49.516;6.094;2023-05-29T16:11:13;23.90;84.50
26212;DHT22;13951;49.516;6.094;2023-05-29T16:13:46;23.90;85.30
26212;DHT22;13951;49.516;6.094;2023-05-29T16:16:19;23.90;84.80
26212;DHT22;13951;49.516;6.094;2023-05-29T16:18:53;23.80;84.50
26212;DHT22;13951;49.516;6.094;2023-05-29T16:21:26;23.80;85.50
26212;DHT22;13951;49.516;6.094;2023-05-29T16:23:59;23.80;84.40
26212;DHT22;13951;49.516;6.094;2023-05-29T16:26:32;23.70;85.30